Time;durP1;ratioP1;P1;durP2;ratioP2;P2;SDS_P1;SDS_P2;PMS_P1;PMS_P2;Temp;Humidity;BMP_temperature;BMP_pressure;BME280_temperature;BME280_humidity;BME280_pressure;Samples;Min_cycle;Max_cycle;Signal;HPM_P1;HPM_P2
2021/12/19 00:00:13;;;;;;;3.60;1.90;;;;;;;4.48;96.61;100053.90;103656;1313;24213;-25
2021/12/19 00:02:58;;;;;;;3.80;1.90;;;;;;;4.72;96.18;100046.13;103683;1314;24150;-30
2021/12/19 00:10:23;;;;;;;2.00;1.50;;;;;;;4.28;99.45;100039.96;103645;1314;24121;-30
2021/12/19 00:12:49;;;;;;;4.00;1.80;;;;;;;4.46;98.43;100040.82;103744;1314;22449;-29
2021/12/19 00:15:14;;;;;;;2.40;1.70;;;;;;;4.52;97.96;100036.18;103930;1314;24207;-25
2021/12/19 00:17:40;;;;;;;2.60;1.60;;;;;;;4.62;97.45;100031.67;103938;1316;24275;-25
2021/12/19 00:20:06;;;;;;;1.50;1.40;;;;;;;4.41;98.54;100025.96;104038;1314;26021;-30
2021/12/19 00:22:32;;;;;;;1.00;0.80;;;;;;;4.61;97.48;100009.75;103636;1310;22599;-29
2021/12/19 00:24:58;;;;;;;1.80;1.40;;;;;;;4.35;97.71;100000.14;103996;1314;24301;-24
2021/12/19 00:27:24;;;;;;;1.50;1.30;;;;;;;4.66;96.48;99987.81;103873;1314;22748;-25
2021/12/19 00:29:50;;;;;;;1.10;0.70;;;;;;;4.72;95.84;99983.36;103948;1314;24225;-25
2021/12/19 00:32:16;;;;;;;0.90;0.70;;;;;;;4.54;96.55;99983.61;104146;1314;22839;-29
2021/12/19 00:34:42;;;;;;;1.70;1.10;;;;;;;4.41;97.15;99987.30;103820;1314;22470;-30
2021/12/19 00:37:08;;;;;;;1.10;0.50;;;;;;;4.57;97.17;99979.77;103572;1302;22459;-24
2021/12/19 00:39:33;;;;;;;1.10;0.60;;;;;;;4.30;97.44;99989.21;103849;1314;22532;-30
2021/12/19 00:41:59;;;;;;;2.10;1.10;;;;;;;4.47;97.83;99978.23;103896;1311;24144;-29
2021/12/19 00:44:26;;;;;;;1.00;0.90;;;;;;;4.29;98.09;99977.46;103840;1302;22538;-30
2021/12/19 00:47:03;;;;;;;1.20;0.80;;;;;;;4.31;98.28;99978.10;103801;1314;24340;-30
2021/12/19 00:49:30;;;;;;;0.90;0.80;;;;;;;4.43;97.78;99973.08;103950;1314;24252;-30
2021/12/19 00:51:55;;;;;;;1.70;1.10;;;;;;;4.70;96.82;99960.72;103832;1314;24121;-24
2021/12/19 00:54:21;;;;;;;1.30;0.80;;;;;;;4.66;95.95;99959.27;103869;1313;24262;-25
2021/12/19 00:56:48;;;;;;;0.50;0.40;;;;;;;4.63;96.24;99950.54;104083;1315;22781;-24
2021/12/19 00:59:15;;;;;;;1.80;1.60;;;;;;;4.70;95.08;99956.77;103591;1307;22440;-24
2021/12/19 01:01:40;;;;;;;2.70;1.90;;;;;;;4.74;95.54;99959.91;104028;1311;24246;-26
2021/12/19 01:04:10;;;;;;;2.70;1.00;;;;;;;4.41;96.92;99957.31;103758;1310;24168;-24
2021/12/19 01:06:37;;;;;;;2.40;0.90;;;;;;;4.35;97.59;99945.20;103732;1305;22724;-24
2021/12/19 01:09:04;;;;;;;1.50;0.60;;;;;;;4.21;98.70;99942.74;103910;1313;22581;-24
2021/12/19 01:11:29;;;;;;;2.60;2.30;;;;;;;4.46;98.20;99940.61;103862;1314;24261;-25
2021/12/19 01:13:56;;;;;;;3.30;1.60;;;;;;;4.76;96.04;99932.63;103920;1302;22672;-25
2021/12/19 01:16:22;;;;;;;2.10;1.80;;;;;;;4.61;96.66;99922.52;103800;1310;22464;-24
2021/12/19 01:18:48;;;;;;;2.60;1.40;;;;;;;4.58;96.90;99929.23;104018;1314;22466;-30
2021/12/19 01:21:14;;;;;;;2.80;1.60;;;;;;;4.42;97.96;99924.48;103912;1314;24260;-29
2021/12/19 01:23:40;;;;;;;2.10;1.80;;;;;;;4.75;96.10;99916.92;103835;1313;24381;-24
2021/12/19 01:26:06;;;;;;;2.40;1.20;;;;;;;4.93;95.38;99910.73;103746;1313;22463;-24
2021/12/19 01:28:32;;;;;;;3.90;3.20;;;;;;;4.66;95.58;99906.75;103669;1316;22497;-29
2021/12/19 01:30:57;;;;;;;1.60;1.20;;;;;;;4.91;95.50;99907.55;103734;1313;24275;-25
2021/12/19 01:33:23;;;;;;;3.40;1.80;;;;;;;4.66;96.13;99908.20;103851;1311;24217;-24
2021/12/19 01:35:49;;;;;;;1.40;1.00;;;;;;;4.86;95.76;99902.20;103576;1310;24287;-30
2021/12/19 01:38:15;;;;;;;2.30;1.50;;;;;;;4.91;95.17;99900.47;103543;1314;22469;-30
2021/12/19 01:40:41;;;;;;;0.70;0.60;;;;;;;4.80;95.34;99889.64;103727;1314;24190;-30
2021/12/19 01:43:07;;;;;;;3.70;1.80;;;;;;;4.86;95.91;99880.95;103997;1313;24691;-25
2021/12/19 01:45:35;;;;;;;4.10;2.60;;;;;;;4.67;96.43;99870.63;103810;1314;24147;-24
2021/12/19 01:48:04;;;;;;;2.50;2.00;;;;;;;4.98;95.10;99864.52;103893;1314;24191;-30
2021/12/19 01:50:31;;;;;;;2.30;1.00;;;;;;;4.85;95.58;99850.52;103879;1313;24253;-30
2021/12/19 01:52:58;;;;;;;2.70;1.20;;;;;;;4.69;95.66;99850.55;103806;1314;22557;-25
2021/12/19 01:55:23;;;;;;;3.80;1.60;;;;;;;4.77;96.24;99853.72;103801;1307;25526;-30
2021/12/19 01:57:49;;;;;;;3.40;2.60;;;;;;;4.87;95.40;99856.69;103927;1314;22686;-25
2021/12/19 02:00:18;;;;;;;6.40;1.50;;;;;;;4.62;96.96;99859.23;103751;1310;24206;-29
2021/12/19 02:02:44;;;;;;;3.80;2.40;;;;;;;4.71;97.31;99858.23;103607;1314;22848;-29
2021/12/19 02:05:10;;;;;;;2.50;1.90;;;;;;;4.93;95.98;99852.55;103730;1314;24178;-29
2021/12/19 02:07:36;;;;;;;4.60;2.90;;;;;;;4.96;95.97;99849.21;103907;1314;24190;-29
2021/12/19 02:10:03;;;;;;;3.40;1.40;;;;;;;4.86;96.30;99835.70;103870;1313;24210;-30
2021/12/19 02:12:29;;;;;;;2.60;2.30;;;;;;;5.01;96.12;99834.60;104018;1310;24311;-25
2021/12/19 02:14:55;;;;;;;4.40;2.10;;;;;;;4.86;96.70;99829.10;103592;1313;24191;-25
2021/12/19 02:17:20;;;;;;;7.70;4.20;;;;;;;4.89;96.82;99830.77;103912;1314;24129;-29
2021/12/19 02:19:49;;;;;;;4.80;3.50;;;;;;;5.06;96.08;99828.16;103760;1313;24257;-25
2021/12/19 02:22:15;;;;;;;3.40;1.50;;;;;;;5.29;94.72;99815.80;103917;1305;22475;-27
2021/12/19 02:24:41;;;;;;;3.20;1.50;;;;;;;4.89;96.35;99819.59;103892;1313;24396;-25
2021/12/19 02:27:07;;;;;;;2.70;2.50;;;;;;;4.91;96.53;99808.38;103999;1314;24138;-29
2021/12/19 02:29:33;;;;;;;4.50;2.70;;;;;;;4.77;97.56;99803.16;104094;1305;22702;-31
2021/12/19 02:31:59;;;;;;;2.20;1.00;;;;;;;5.12;96.30;99792.11;103808;1307;24301;-29
2021/12/19 02:34:28;;;;;;;4.60;3.30;;;;;;;5.04;96.61;99785.14;103888;1314;22443;-30
2021/12/19 02:37:02;;;;;;;7.60;4.00;;;;;;;4.97;96.56;99770.34;103711;1310;24158;-29
2021/12/19 02:49:27;;;;;;;7.70;3.10;;;;;;;4.86;98.51;99747.34;103860;1314;22465;-30
2021/12/19 02:51:54;;;;;;;4.10;1.90;;;;;;;4.80;99.07;99743.33;103813;1311;22463;-29
2021/12/19 02:54:20;;;;;;;6.40;2.00;;;;;;;4.95;98.13;99737.17;103833;1310;24357;-25
2021/12/19 02:56:46;;;;;;;4.10;2.60;;;;;;;5.02;97.93;99733.98;103773;1314;24157;-30
2021/12/19 02:59:14;;;;;;;9.90;3.90;;;;;;;4.94;98.26;99729.67;103616;1309;24147;-29
2021/12/19 03:01:43;;;;;;;6.50;3.90;;;;;;;5.11;97.61;99716.25;103906;1313;24158;-25
2021/12/19 03:04:10;;;;;;;2.90;2.30;;;;;;;4.97;98.05;99708.04;103685;1305;24182;-30
2021/12/19 03:06:41;;;;;;;5.30;3.10;;;;;;;5.05;98.63;99700.92;103618;1316;24216;-30
2021/12/19 03:09:09;;;;;;;2.50;1.90;;;;;;;5.10;97.44;99695.24;103653;1310;25260;-30
2021/12/19 03:12:20;;;;;;;3.10;1.80;;;;;;;5.02;98.12;99686.25;103807;1315;24277;-30
2021/12/19 03:19:19;;;;;;;3.10;2.80;;;;;;;5.30;97.11;99671.56;103841;1306;24156;-29
2021/12/19 03:21:45;;;;;;;3.50;1.80;;;;;;;5.15;97.15;99667.52;103582;1314;25263;-30
2021/12/19 03:24:11;;;;;;;2.90;2.60;;;;;;;4.95;98.67;99661.05;103814;1314;24230;-30
2021/12/19 03:26:37;;;;;;;3.60;2.90;;;;;;;5.23;97.64;99665.67;103896;1308;22560;-30
2021/12/19 03:29:03;;;;;;;4.40;3.20;;;;;;;5.18;97.34;99655.94;103820;1305;24296;-25
2021/12/19 03:31:30;;;;;;;4.90;3.80;;;;;;;5.30;96.71;99653.75;103845;1314;24587;-30
2021/12/19 03:33:57;;;;;;;7.00;5.10;;;;;;;5.13;97.56;99653.38;103986;1316;24244;-25
2021/12/19 03:36:24;;;;;;;6.40;5.50;;;;;;;5.45;96.37;99640.77;103788;1313;22448;-30
2021/12/19 03:38:57;;;;;;;8.20;5.90;;;;;;;5.34;96.38;99635.86;103888;1314;22736;-25
2021/12/19 03:41:26;;;;;;;6.30;4.40;;;;;;;5.24;97.11;99611.45;103901;1313;24306;-30
2021/12/19 03:43:52;;;;;;;4.60;3.90;;;;;;;5.25;97.21;99620.40;104154;1305;22784;-25
2021/12/19 03:46:18;;;;;;;4.20;3.80;;;;;;;5.33;96.60;99616.78;103904;1314;23830;-30
2021/12/19 03:48:44;;;;;;;5.60;3.30;;;;;;;5.45;96.57;99611.93;103642;1313;24207;-30
2021/12/19 03:51:10;;;;;;;5.30;4.70;;;;;;;5.18;97.11;99613.83;103898;1314;24272;-29
2021/12/19 03:53:35;;;;;;;6.20;4.20;;;;;;;5.44;96.42;99602.27;103789;1307;24286;-25
2021/12/19 03:56:02;;;;;;;5.40;3.30;;;;;;;5.46;95.62;99594.80;103917;1314;22464;-25
2021/12/19 03:58:28;;;;;;;8.50;4.80;;;;;;;5.54;95.41;99603.05;103188;1311;577840;-25
2021/12/19 04:00:58;;;;;;;7.20;4.80;;;;;;;5.40;95.97;99616.92;103894;1314;24449;-30
2021/12/19 04:03:24;;;;;;;5.90;3.30;;;;;;;5.21;96.45;99603.75;103956;1316;22439;-30
2021/12/19 04:05:51;;;;;;;8.70;5.50;;;;;;;5.42;95.79;99596.80;103893;1314;22471;-30
2021/12/19 04:08:17;;;;;;;6.50;4.60;;;;;;;5.36;95.67;99587.48;103778;1307;23924;-30
2021/12/19 04:10:43;;;;;;;13.90;3.50;;;;;;;5.55;95.16;99579.14;103862;1307;22688;-30
2021/12/19 04:13:09;;;;;;;5.40;3.30;;;;;;;5.35;95.42;99576.02;103808;1314;24223;-29
2021/12/19 04:15:35;;;;;;;5.90;5.30;;;;;;;5.38;95.64;99579.98;103974;1314;24180;-30
2021/12/19 04:18:01;;;;;;;4.60;3.60;;;;;;;5.68;94.06;99578.90;103884;1314;22467;-25
2021/12/19 04:20:27;;;;;;;4.40;3.70;;;;;;;5.37;94.84;99580.61;103928;1314;24185;-30
2021/12/19 04:22:53;;;;;;;6.60;5.80;;;;;;;5.50;95.11;99569.86;103755;1314;24176;-25
2021/12/19 04:25:19;;;;;;;3.60;3.20;;;;;;;5.68;93.00;99572.60;103826;1314;24132;-30
2021/12/19 04:27:44;;;;;;;4.00;2.70;;;;;;;5.43;94.28;99569.20;103804;1313;24147;-30
2021/12/19 04:30:12;;;;;;;3.50;3.10;;;;;;;5.71;92.83;99561.27;103597;1313;24162;-30
2021/12/19 04:32:43;;;;;;;2.00;1.70;;;;;;;5.59;92.64;99565.41;103749;1314;23124;-30
2021/12/19 04:35:10;;;;;;;5.70;4.00;;;;;;;5.47;93.34;99554.02;103678;1313;24149;-28
2021/12/19 04:40:28;;;;;;;6.90;3.40;;;;;;;5.72;91.31;99538.50;103655;1314;22594;-24
2021/12/19 04:57:50;;;;;;;3.20;2.70;;;;;;;5.46;91.79;99527.73;103754;1314;23129;-30
2021/12/19 05:00:30;;;;;;;3.80;3.20;;;;;;;5.44;91.99;99520.27;103656;1314;22472;-25
2021/12/19 05:03:02;;;;;;;5.40;1.70;;;;;;;5.97;88.65;99524.55;103801;1314;24241;-25
2021/12/19 05:15:26;;;;;;;4.40;3.20;;;;;;;5.73;88.91;99507.46;103672;1314;22464;-25
2021/12/19 05:17:55;;;;;;;3.20;2.40;;;;;;;5.63;89.52;99507.77;104055;1314;22722;-30
2021/12/19 05:20:25;;;;;;;6.90;4.40;;;;;;;5.72;88.83;99517.82;103522;1314;24154;-30
2021/12/19 05:22:55;;;;;;;6.40;3.10;;;;;;;5.55;89.40;99518.90;103677;1313;22685;-30
2021/12/19 05:25:21;;;;;;;7.20;3.50;;;;;;;5.29;90.50;99519.14;103892;1313;23096;-25
2021/12/19 05:27:47;;;;;;;3.50;2.50;;;;;;;5.22;90.53;99526.79;104047;1307;24148;-30
2021/12/19 05:30:13;;;;;;;3.20;2.50;;;;;;;5.24;90.07;99532.27;103632;1315;22473;-30
2021/12/19 05:32:41;;;;;;;6.90;2.00;;;;;;;5.39;88.99;99541.55;103740;1314;24249;-25
2021/12/19 05:35:08;;;;;;;3.60;1.70;;;;;;;5.47;88.32;99551.56;103536;1314;24148;-25
2021/12/19 05:47:32;;;;;;;11.00;2.00;;;;;;;5.21;88.78;99560.30;103966;1314;24273;-25
2021/12/19 05:49:58;;;;;;;6.60;2.10;;;;;;;5.26;87.35;99554.77;103859;1315;25150;-25
2021/12/19 05:52:26;;;;;;;3.80;2.40;;;;;;;5.20;87.68;99559.50;103908;1315;24158;-25
2021/12/19 05:54:52;;;;;;;3.60;1.30;;;;;;;5.08;88.44;99548.98;103667;1313;24141;-30
2021/12/19 05:57:20;;;;;;;5.20;2.20;;;;;;;5.11;88.36;99563.09;103900;1314;24264;-29
2021/12/19 05:59:46;;;;;;;8.50;2.60;;;;;;;5.23;88.05;99562.20;103988;1313;22832;-30
2021/12/19 06:02:11;;;;;;;5.20;1.90;;;;;;;5.06;88.72;99567.00;103752;1313;24271;-29
2021/12/19 06:04:37;;;;;;;3.10;2.10;;;;;;;5.00;89.10;99559.78;103807;1314;22731;-30
2021/12/19 06:07:03;;;;;;;3.40;1.30;;;;;;;5.07;88.63;99567.55;103959;1314;24212;-30
2021/12/19 06:09:30;;;;;;;10.30;1.40;;;;;;;4.97;88.91;99573.09;103669;1311;23885;-25
2021/12/19 06:11:55;;;;;;;3.30;2.00;;;;;;;4.98;89.26;99571.48;104038;1315;22837;-28
2021/12/19 06:14:22;;;;;;;3.10;1.50;;;;;;;5.04;88.84;99560.44;103791;1314;23029;-30
2021/12/19 06:16:48;;;;;;;4.20;1.20;;;;;;;4.93;89.25;99560.32;103778;1313;24179;-30
2021/12/19 06:19:14;;;;;;;1.80;1.00;;;;;;;4.98;89.12;99560.03;104009;1313;24157;-30
2021/12/19 06:21:40;;;;;;;3.60;2.30;;;;;;;4.82;89.58;99556.97;103939;1314;24130;-25
2021/12/19 06:24:06;;;;;;;4.90;1.20;;;;;;;4.98;89.32;99551.80;103810;1316;24203;-25
2021/12/19 06:26:35;;;;;;;2.90;1.50;;;;;;;4.82;89.51;99540.99;103794;1315;25306;-25
2021/12/19 06:29:03;;;;;;;5.00;1.90;;;;;;;5.04;88.65;99535.58;103752;1307;24350;-30
2021/12/19 06:31:29;;;;;;;9.60;1.10;;;;;;;5.02;88.70;99534.86;103966;1301;22796;-26
2021/12/19 06:33:55;;;;;;;13.90;1.10;;;;;;;4.91;89.80;99529.65;103913;1313;24765;-26
2021/12/19 06:36:20;;;;;;;3.70;1.50;;;;;;;4.97;89.15;99529.21;104143;1310;24201;-26
2021/12/19 06:38:47;;;;;;;8.30;2.80;;;;;;;5.06;88.66;99522.02;104042;1316;24270;-25
2021/12/19 06:41:12;;;;;;;2.80;1.40;;;;;;;4.87;89.42;99517.98;104062;1315;24316;-30
2021/12/19 06:43:38;;;;;;;6.30;2.90;;;;;;;4.82;90.16;99507.00;103799;1313;24153;-25
2021/12/19 06:46:04;;;;;;;4.70;1.40;;;;;;;5.05;89.28;99514.70;103637;1315;24136;-29
2021/12/19 06:48:30;;;;;;;7.90;2.20;;;;;;;4.91;89.74;99517.80;104048;1315;22557;-25
2021/12/19 06:50:56;;;;;;;7.20;1.30;;;;;;;4.82;90.07;99513.73;103896;1315;22462;-25
2021/12/19 06:53:22;;;;;;;5.90;1.50;;;;;;;4.78;90.45;99523.34;103661;1315;24145;-28
2021/12/19 06:55:50;;;;;;;1.60;1.10;;;;;;;4.88;90.12;99524.96;103754;1314;24209;-30
2021/12/19 06:58:16;;;;;;;2.80;1.30;;;;;;;4.86;89.96;99513.85;103631;1315;23914;-25
2021/12/19 07:00:42;;;;;;;2.40;1.20;;;;;;;4.81;90.39;99516.98;103774;1316;24315;-29
2021/12/19 07:03:10;;;;;;;2.40;1.50;;;;;;;4.79;90.57;99519.19;103848;1312;24221;-25
2021/12/19 07:05:37;;;;;;;7.00;1.80;;;;;;;5.03;89.94;99513.34;103985;1315;24146;-30
2021/12/19 07:08:03;;;;;;;7.00;2.50;;;;;;;5.08;89.23;99503.19;103880;1314;22461;-26
2021/12/19 07:10:30;;;;;;;2.30;1.30;;;;;;;4.86;90.45;99511.02;103666;1302;22836;-27
2021/12/19 07:12:55;;;;;;;10.90;2.30;;;;;;;4.62;91.89;99510.60;103764;1311;24189;-30
2021/12/19 07:15:24;;;;;;;4.70;1.90;;;;;;;4.64;91.86;99505.42;103665;1314;24086;-26
2021/12/19 07:17:51;;;;;;;14.40;1.90;;;;;;;4.80;91.56;99493.73;103931;1315;24248;-30
2021/12/19 07:20:17;;;;;;;3.20;1.80;;;;;;;4.70;91.97;99500.94;103879;1316;24122;-29
2021/12/19 07:22:43;;;;;;;5.60;3.20;;;;;;;4.62;92.83;99499.30;103805;1306;22493;-29
2021/12/19 07:25:09;;;;;;;2.80;1.80;;;;;;;4.46;93.73;99499.31;103841;1313;22876;-29
2021/12/19 07:27:35;;;;;;;2.80;2.30;;;;;;;4.62;93.30;99489.81;103894;1308;24270;-25
2021/12/19 07:30:01;;;;;;;8.50;3.10;;;;;;;4.57;93.34;99496.03;103950;1316;24172;-26
2021/12/19 07:32:27;;;;;;;5.30;3.60;;;;;;;4.58;93.74;99492.55;103811;1314;22478;-25
2021/12/19 07:34:52;;;;;;;2.60;1.30;;;;;;;4.44;94.33;99496.08;103950;1314;24269;-25
2021/12/19 07:37:20;;;;;;;4.00;1.60;;;;;;;4.54;94.42;99500.01;103841;1315;24405;-25
2021/12/19 07:42:15;;;;;;;5.90;2.50;;;;;;;4.50;94.27;99501.32;103891;1310;22485;-25
2021/12/19 07:44:41;;;;;;;3.00;2.10;;;;;;;4.54;93.97;99497.45;103887;1305;22759;-26
2021/12/19 07:47:07;;;;;;;6.20;3.40;;;;;;;4.38;94.82;99500.48;103746;1316;24260;-25
2021/12/19 07:49:33;;;;;;;3.90;3.20;;;;;;;4.47;94.60;99496.46;103994;1315;24165;-30
2021/12/19 07:51:59;;;;;;;14.40;3.50;;;;;;;4.43;94.55;99493.67;103916;1311;24177;-29
2021/12/19 07:54:25;;;;;;;7.80;3.70;;;;;;;4.29;94.61;99492.63;103879;1314;22458;-25
2021/12/19 07:56:52;;;;;;;9.20;3.40;;;;;;;4.61;93.93;99487.83;103698;1314;24129;-25
2021/12/19 07:59:18;;;;;;;3.60;3.00;;;;;;;4.78;92.61;99482.94;103763;1313;24354;-29
2021/12/19 08:01:43;;;;;;;5.90;3.30;;;;;;;4.82;92.81;99488.70;103806;1314;22687;-25
2021/12/19 08:04:09;;;;;;;4.30;2.70;;;;;;;4.73;92.43;99487.36;103676;1314;23793;-29
2021/12/19 08:06:35;;;;;;;3.90;2.70;;;;;;;4.56;93.71;99485.33;103614;1314;24153;-25
2021/12/19 08:09:08;;;;;;;6.40;3.00;;;;;;;4.50;94.54;99481.46;103691;1313;24191;-25
2021/12/19 08:14:03;;;;;;;4.60;3.80;;;;;;;4.48;94.78;99479.17;103646;1313;22482;-25
2021/12/19 08:16:29;;;;;;;6.50;2.40;;;;;;;4.70;93.88;99476.79;103531;1313;24257;-29
2021/12/19 08:18:54;;;;;;;4.00;2.50;;;;;;;4.51;94.12;99475.05;103654;1314;24148;-29
2021/12/19 08:21:20;;;;;;;3.10;2.70;;;;;;;4.54;94.25;99468.35;103700;1315;24225;-26
2021/12/19 08:23:46;;;;;;;7.50;3.20;;;;;;;4.63;93.74;99463.86;103709;1314;24195;-25
2021/12/19 08:26:12;;;;;;;3.40;2.20;;;;;;;4.48;94.60;99473.61;103633;1313;24247;-29
2021/12/19 08:28:38;;;;;;;5.50;2.20;;;;;;;4.65;93.80;99458.38;103656;1314;22462;-25
2021/12/19 08:31:04;;;;;;;8.00;3.30;;;;;;;4.60;94.29;99447.65;103672;1313;24236;-25
2021/12/19 08:33:29;;;;;;;5.30;2.80;;;;;;;4.54;94.45;99448.10;103653;1308;24253;-27
2021/12/19 08:35:55;;;;;;;5.20;2.00;;;;;;;4.58;94.04;99453.23;103641;1315;22478;-25
2021/12/19 08:38:21;;;;;;;3.70;2.00;;;;;;;4.67;93.67;99444.59;103615;1314;24252;-30
2021/12/19 08:40:49;;;;;;;2.40;1.40;;;;;;;4.62;93.66;99454.07;103809;1313;22464;-25
2021/12/19 08:43:16;;;;;;;4.90;3.50;;;;;;;4.52;94.47;99451.02;103796;1315;24230;-26
2021/12/19 08:45:42;;;;;;;2.00;1.80;;;;;;;4.65;93.40;99440.80;103669;1315;22730;-25
2021/12/19 08:48:07;;;;;;;2.80;1.40;;;;;;;4.56;94.18;99441.86;103786;1314;24370;-29
2021/12/19 08:50:33;;;;;;;3.30;1.60;;;;;;;4.47;94.65;99452.06;103676;1314;23799;-29
2021/12/19 08:52:59;;;;;;;3.70;2.10;;;;;;;4.47;95.20;99445.08;103867;1308;24353;-25
2021/12/19 08:55:25;;;;;;;4.40;1.80;;;;;;;4.62;94.42;99456.48;103602;1314;24129;-25
2021/12/19 08:57:51;;;;;;;4.30;2.00;;;;;;;4.61;93.92;99453.99;103701;1311;24316;-25
2021/12/19 09:00:18;;;;;;;2.10;1.70;;;;;;;4.52;94.29;99471.06;103729;1314;24173;-26
2021/12/19 09:02:46;;;;;;;2.00;1.30;;;;;;;4.56;94.26;99468.77;103688;1314;24252;-29
2021/12/19 09:05:13;;;;;;;8.30;2.80;;;;;;;4.45;95.07;99462.90;103719;1314;23903;-26
2021/12/19 09:07:39;;;;;;;4.80;2.20;;;;;;;4.50;95.12;99467.96;103801;1314;24245;-25
2021/12/19 09:10:05;;;;;;;5.00;2.50;;;;;;;4.43;95.72;99472.80;103740;1314;22507;-26
2021/12/19 09:12:32;;;;;;;3.50;2.60;;;;;;;4.47;96.22;99475.45;103817;1315;22942;-29
2021/12/19 09:14:58;;;;;;;4.50;1.90;;;;;;;4.44;96.26;99463.00;103646;1314;22726;-25
2021/12/19 09:17:23;;;;;;;4.30;2.10;;;;;;;4.45;96.74;99461.81;103711;1314;24259;-25
2021/12/19 09:19:50;;;;;;;4.10;2.20;;;;;;;4.28;97.33;99457.52;103662;1314;24440;-29
2021/12/19 09:22:16;;;;;;;3.00;1.60;;;;;;;4.19;97.96;99458.79;103689;1314;24132;-25
2021/12/19 09:24:42;;;;;;;3.70;1.90;;;;;;;4.28;97.49;99449.81;103793;1314;24272;-25
2021/12/19 09:27:09;;;;;;;3.70;1.80;;;;;;;4.32;96.46;99449.06;103814;1314;24122;-25
2021/12/19 09:29:35;;;;;;;5.00;1.80;;;;;;;4.35;96.11;99445.38;103684;1310;24189;-28
2021/12/19 09:32:01;;;;;;;2.80;1.40;;;;;;;4.28;96.55;99447.40;103756;1313;24412;-26
2021/12/19 09:34:27;;;;;;;2.00;1.30;;;;;;;4.32;95.93;99445.95;103557;1314;24132;-30
2021/12/19 09:36:54;;;;;;;5.10;1.00;;;;;;;4.28;95.73;99438.85;103738;1314;24207;-26
2021/12/19 09:39:20;;;;;;;3.00;1.50;;;;;;;4.37;95.15;99437.23;103797;1314;24244;-31
2021/12/19 09:41:46;;;;;;;1.60;1.00;;;;;;;4.38;94.98;99433.58;103579;1313;24201;-27
2021/12/19 09:44:15;;;;;;;4.10;1.10;;;;;;;4.45;94.65;99426.66;103640;1314;24316;-26
2021/12/19 09:46:42;;;;;;;1.10;0.80;;;;;;;4.55;93.26;99417.16;103692;1311;24276;-31
2021/12/19 09:49:09;;;;;;;1.70;0.60;;;;;;;4.49;93.01;99415.44;103655;1304;24350;-27
2021/12/19 09:51:35;;;;;;;1.20;0.70;;;;;;;4.40;93.18;99423.78;103711;1314;24308;-31
2021/12/19 09:54:01;;;;;;;3.40;1.00;;;;;;;4.50;93.52;99416.56;103684;1314;24153;-26
2021/12/19 09:56:27;;;;;;;3.50;0.90;;;;;;;4.51;93.01;99417.58;103776;1313;24114;-31
2021/12/19 09:58:53;;;;;;;1.00;0.70;;;;;;;4.50;93.19;99413.63;103658;1315;24345;-27
2021/12/19 10:01:19;;;;;;;0.90;0.70;;;;;;;4.62;93.02;99410.55;103763;1313;24152;-27
2021/12/19 10:03:45;;;;;;;2.20;0.60;;;;;;;4.52;93.55;99406.98;103736;1314;24370;-27
2021/12/19 10:06:12;;;;;;;2.60;1.00;;;;;;;4.49;94.13;99406.05;103706;1308;24293;-27
2021/12/19 10:08:39;;;;;;;1.10;0.80;;;;;;;4.40;94.95;99402.04;103655;1314;24132;-31
2021/12/19 10:11:13;;;;;;;3.20;0.90;;;;;;;4.34;95.59;99400.55;103501;1314;24300;-31
2021/12/19 10:13:39;;;;;;;7.30;1.60;;;;;;;4.25;96.55;99402.48;103671;1315;24132;-29
2021/12/19 10:16:12;;;;;;;1.00;0.90;;;;;;;4.23;96.97;99403.26;103679;1307;24086;-28
2021/12/19 10:18:49;;;;;;;3.60;0.90;;;;;;;4.16;97.54;99399.08;103658;1314;23956;-25
2021/12/19 10:21:17;;;;;;;2.10;1.40;;;;;;;4.03;98.91;99400.10;103676;1313;24148;-25
2021/12/19 10:23:43;;;;;;;1.50;1.00;;;;;;;4.04;99.75;99393.85;103681;1313;24156;-29
2021/12/19 10:26:10;;;;;;;1.50;0.90;;;;;;;3.96;99.85;99386.62;103655;1314;24178;-29
2021/12/19 10:28:42;;;;;;;2.10;0.80;;;;;;;4.03;99.91;99378.70;103682;1315;24132;-29
2021/12/19 10:31:08;;;;;;;3.50;1.40;;;;;;;3.97;99.95;99371.63;103661;1315;22485;-29
2021/12/19 10:33:34;;;;;;;2.30;0.80;;;;;;;3.91;100.00;99365.56;103551;1312;22738;-29
2021/12/19 10:36:02;;;;;;;1.70;1.40;;;;;;;3.89;100.00;99363.09;103654;1314;24208;-26
2021/12/19 10:38:31;;;;;;;3.60;2.30;;;;;;;4.19;99.66;99348.67;103742;1314;22478;-26
2021/12/19 10:40:58;;;;;;;2.90;1.70;;;;;;;4.08;99.62;99348.80;103472;1314;24113;-24
2021/12/19 10:43:27;;;;;;;2.00;1.40;;;;;;;3.97;100.00;99344.55;103663;1310;24270;-29
2021/12/19 10:45:55;;;;;;;2.90;1.70;;;;;;;4.02;100.00;99348.46;103705;1315;22703;-25
2021/12/19 10:48:24;;;;;;;1.50;0.90;;;;;;;4.00;100.00;99344.42;103752;1311;24264;-29
2021/12/19 10:50:52;;;;;;;2.50;0.90;;;;;;;4.01;99.96;99330.92;103694;1314;24373;-29
2021/12/19 10:53:19;;;;;;;2.30;1.10;;;;;;;4.33;97.60;99311.66;103709;1313;24261;-25
2021/12/19 10:55:46;;;;;;;3.00;1.10;;;;;;;4.18;97.58;99310.46;103713;1314;24176;-28
2021/12/19 10:58:19;;;;;;;7.10;1.70;;;;;;;4.15;98.00;99325.40;103754;1314;24371;-25
2021/12/19 11:00:52;;;;;;;5.20;1.80;;;;;;;4.25;97.52;99310.51;103697;1310;24948;-25
2021/12/19 11:03:25;;;;;;;3.60;1.90;;;;;;;4.11;97.65;99310.35;103713;1314;24110;-29
2021/12/19 11:05:51;;;;;;;;;;;;;;;4.15;97.74;99307.61;103713;1314;24121;-29
2021/12/19 11:08:16;;;;;;;1.20;0.50;;;;;;;4.11;97.94;99299.73;103740;1314;24258;-25
2021/12/19 11:10:42;;;;;;;3.10;0.60;;;;;;;4.10;97.12;99293.23;103683;1311;24277;-31
2021/12/19 11:13:10;;;;;;;2.10;1.10;;;;;;;3.96;98.53;99310.27;103878;1314;24187;-29
2021/12/19 11:15:38;;;;;;;0.80;0.40;;;;;;;3.93;99.15;99310.27;103935;1307;22464;-30
2021/12/19 11:18:05;;;;;;;1.90;0.70;;;;;;;3.92;99.01;99293.92;103670;1310;24257;-30
2021/12/19 11:20:31;;;;;;;2.90;0.90;;;;;;;3.98;98.87;99300.38;103707;1314;24265;-30
2021/12/19 11:22:57;;;;;;;1.30;0.50;;;;;;;4.07;99.25;99288.94;103687;1314;24330;-30
2021/12/19 11:25:23;;;;;;;0.80;0.30;;;;;;;3.94;99.21;99285.49;103726;1314;24359;-31
2021/12/19 11:27:48;;;;;;;1.30;0.60;;;;;;;3.87;99.93;99291.77;103583;1314;24140;-26
2021/12/19 11:30:14;;;;;;;1.00;0.30;;;;;;;3.90;100.00;99286.60;103706;1310;24268;-30
2021/12/19 11:32:49;;;;;;;0.70;0.30;;;;;;;3.84;100.00;99278.44;103665;1314;24151;-31
2021/12/19 11:35:18;;;;;;;1.40;0.60;;;;;;;3.96;99.93;99267.62;103833;1314;23795;-30
2021/12/19 11:37:49;;;;;;;0.80;0.50;;;;;;;3.95;99.60;99266.81;103984;1314;22453;-30
2021/12/19 11:40:16;;;;;;;3.40;1.20;;;;;;;4.20;98.25;99245.81;103852;1314;24371;-26
2021/12/19 11:42:42;;;;;;;1.30;0.50;;;;;;;4.28;97.15;99247.70;103819;1314;24240;-26
2021/12/19 11:48:01;;;;;;;0.50;0.30;;;;;;;4.18;97.66;99248.39;103619;1314;22467;-26
2021/12/19 11:50:29;;;;;;;4.20;0.60;;;;;;;4.58;96.32;99246.65;103909;1314;22717;-30
2021/12/19 11:52:57;;;;;;;1.00;0.40;;;;;;;4.35;97.23;99238.72;104018;1314;22556;-26
2021/12/19 11:55:26;;;;;;;1.60;1.10;;;;;;;4.43;96.61;99232.80;103833;1314;22578;-24
2021/12/19 11:57:59;;;;;;;1.10;0.60;;;;;;;4.22;97.27;99232.63;103485;1314;712469;-30
2021/12/19 12:00:26;;;;;;;1.50;0.50;;;;;;;4.30;97.92;99232.69;104073;1314;22580;-30
2021/12/19 12:03:11;;;;;;;3.80;1.10;;;;;;;4.24;97.56;99240.64;104037;1304;22720;-26
2021/12/19 12:05:40;;;;;;;1.10;0.60;;;;;;;4.06;98.57;99235.58;104131;1314;24378;-26
2021/12/19 12:08:12;;;;;;;1.10;0.50;;;;;;;3.91;99.62;99235.56;104013;1315;22469;-31
2021/12/19 12:10:42;;;;;;;2.00;1.10;;;;;;;3.93;99.62;99228.44;104062;1307;22651;-30
2021/12/19 12:13:22;;;;;;;2.50;0.70;;;;;;;3.99;99.09;99215.52;103910;1311;24192;-26
2021/12/19 12:15:51;;;;;;;7.20;2.10;;;;;;;3.98;99.46;99207.67;103921;1307;24158;-30
2021/12/19 12:18:24;;;;;;;11.60;5.80;;;;;;;4.08;99.05;99200.44;103839;1313;24185;-26
2021/12/19 12:20:50;;;;;;;2.20;1.20;;;;;;;3.95;99.13;99199.66;104013;1314;23431;-26
2021/12/19 12:23:16;;;;;;;7.50;3.40;;;;;;;3.89;99.98;99196.24;103835;1314;24123;-26
2021/12/19 12:25:43;;;;;;;7.60;3.50;;;;;;;3.93;100.00;99196.23;104022;1314;24453;-28
2021/12/19 12:28:10;;;;;;;1.50;0.80;;;;;;;4.00;99.96;99187.35;104041;1316;22487;-26
2021/12/19 12:30:38;;;;;;;1.40;0.80;;;;;;;3.86;100.00;99179.41;103868;1313;22667;-30
2021/12/19 12:33:05;;;;;;;3.00;2.10;;;;;;;3.89;99.89;99179.26;103921;1314;22464;-31
2021/12/19 12:35:35;;;;;;;1.80;1.20;;;;;;;3.92;99.99;99175.89;104038;1305;24135;-31